sensor_id;sensor_type;location;lat;lon;timestamp;pressure;altitude;pressure_sealevel;temperature;humidity
15382;BME280;7789;51.364;12.358;2023-04-02T00:02:57;99622.66;;;7.53;100.00
15382;BME280;7789;51.364;12.358;2023-04-02T00:08:17;99638.50;;;7.50;100.00
15382;BME280;7789;51.364;12.358;2023-04-02T00:13:28;99644.66;;;7.49;100.00
15382;BME280;7789;51.364;12.358;2023-04-02T00:18:39;99649.59;;;7.52;100.00
15382;BME280;7789;51.364;12.358;2023-04-02T00:23:46;99665.47;;;7.49;100.00
15382;BME280;7789;51.364;12.358;2023-04-02T00:28:54;99670.13;;;7.35;100.00
15382;BME280;7789;51.364;12.358;2023-04-02T00:34:05;99675.66;;;7.41;100.00
15382;BME280;7789;51.364;12.358;2023-04-02T00:39:18;99687.81;;;7.41;100.00
15382;BME280;7789;51.364;12.358;2023-04-02T00:44:30;99700.13;;;7.39;100.00
15382;BME280;7789;51.364;12.358;2023-04-02T00:49:41;99695.03;;;7.37;100.00
15382;BME280;7789;51.364;12.358;2023-04-02T00:54:55;99706.63;;;7.33;100.00
15382;BME280;7789;51.364;12.358;2023-04-02T01:00:19;99719.97;;;7.29;100.00
15382;BME280;7789;51.364;12.358;2023-04-02T01:05:33;99725.66;;;7.23;100.00
15382;BME280;7789;51.364;12.358;2023-04-02T01:10:53;99739.84;;;7.19;100.00
15382;BME280;7789;51.364;12.358;2023-04-02T01:16:08;99748.47;;;7.20;100.00
15382;BME280;7789;51.364;12.358;2023-04-02T01:21:23;99755.81;;;7.15;100.00
15382;BME280;7789;51.364;12.358;2023-04-02T01:26:45;99763.38;;;7.07;100.00
15382;BME280;7789;51.364;12.358;2023-04-02T01:31:57;99772.91;;;6.95;100.00
15382;BME280;7789;51.364;12.358;2023-04-02T01:37:15;99785.53;;;6.89;100.00
15382;BME280;7789;51.364;12.358;2023-04-02T01:42:27;99801.03;;;6.90;100.00
15382;BME280;7789;51.364;12.358;2023-04-02T01:47:40;99817.66;;;6.77;100.00
15382;BME280;7789;51.364;12.358;2023-04-02T01:52:49;99820.81;;;6.69;100.00
15382;BME280;7789;51.364;12.358;2023-04-02T01:57:56;99823.38;;;6.58;100.00
15382;BME280;7789;51.364;12.358;2023-04-02T02:03:05;99831.88;;;6.60;100.00
15382;BME280;7789;51.364;12.358;2023-04-02T02:08:25;99845.44;;;6.53;100.00
15382;BME280;7789;51.364;12.358;2023-04-02T02:13:33;99850.75;;;6.51;100.00
15382;BME280;7789;51.364;12.358;2023-04-02T02:18:41;99863.13;;;6.48;100.00
15382;BME280;7789;51.364;12.358;2023-04-02T02:23:47;99862.31;;;6.47;100.00
15382;BME280;7789;51.364;12.358;2023-04-02T02:28:56;99879.03;;;6.43;100.00
15382;BME280;7789;51.364;12.358;2023-04-02T02:34:10;99889.88;;;6.37;100.00
15382;BME280;7789;51.364;12.358;2023-04-02T02:39:22;99901.81;;;6.40;100.00
15382;BME280;7789;51.364;12.358;2023-04-02T02:44:29;99910.53;;;6.39;100.00
15382;BME280;7789;51.364;12.358;2023-04-02T02:49:41;99913.78;;;6.30;100.00
15382;BME280;7789;51.364;12.358;2023-04-02T02:54:49;99925.00;;;6.18;100.00
15382;BME280;7789;51.364;12.358;2023-04-02T02:59:56;99925.53;;;6.23;100.00
15382;BME280;7789;51.364;12.358;2023-04-02T03:05:06;99930.81;;;6.21;100.00
15382;BME280;7789;51.364;12.358;2023-04-02T03:10:15;99936.78;;;6.11;100.00
15382;BME280;7789;51.364;12.358;2023-04-02T03:15:38;99966.13;;;6.11;100.00
15382;BME280;7789;51.364;12.358;2023-04-02T03:20:58;99970.38;;;6.12;100.00
15382;BME280;7789;51.364;12.358;2023-04-02T03:26:07;99975.50;;;6.01;100.00
15382;BME280;7789;51.364;12.358;2023-04-02T03:31:22;99987.75;;;5.99;100.00
15382;BME280;7789;51.364;12.358;2023-04-02T03:36:34;99995.41;;;6.01;100.00
15382;BME280;7789;51.364;12.358;2023-04-02T03:41:49;100008.72;;;5.96;100.00
15382;BME280;7789;51.364;12.358;2023-04-02T03:47:00;100021.69;;;5.84;100.00
15382;BME280;7789;51.364;12.358;2023-04-02T03:52:13;100029.59;;;5.82;100.00
15382;BME280;7789;51.364;12.358;2023-04-02T03:57:26;100038.91;;;5.85;100.00
15382;BME280;7789;51.364;12.358;2023-04-02T04:02:40;100052.94;;;5.82;100.00
15382;BME280;7789;51.364;12.358;2023-04-02T04:07:50;100069.28;;;5.83;100.00
15382;BME280;7789;51.364;12.358;2023-04-02T04:13:03;100084.25;;;5.79;100.00
15382;BME280;7789;51.364;12.358;2023-04-02T04:18:19;100097.38;;;5.76;100.00
15382;BME280;7789;51.364;12.358;2023-04-02T04:23:38;100118.81;;;5.66;100.00
15382;BME280;7789;51.364;12.358;2023-04-02T04:28:51;100126.00;;;5.62;100.00
15382;BME280;7789;51.364;12.358;2023-04-02T04:34:06;100147.63;;;5.61;100.00
15382;BME280;7789;51.364;12.358;2023-04-02T04:39:21;100146.31;;;5.68;100.00
15382;BME280;7789;51.364;12.358;2023-04-02T04:44:38;100165.00;;;5.73;100.00
15382;BME280;7789;51.364;12.358;2023-04-02T04:49:49;100182.09;;;5.63;100.00
15382;BME280;7789;51.364;12.358;2023-04-02T04:54:58;100200.63;;;5.57;100.00
15382;BME280;7789;51.364;12.358;2023-04-02T05:00:13;100206.66;;;5.58;100.00
15382;BME280;7789;51.364;12.358;2023-04-02T05:05:25;100218.53;;;5.48;100.00
15382;BME280;7789;51.364;12.358;2023-04-02T05:10:45;100227.16;;;5.48;100.00
15382;BME280;7789;51.364;12.358;2023-04-02T05:16:00;100251.41;;;5.47;100.00
15382;BME280;7789;51.364;12.358;2023-04-02T05:21:14;100261.03;;;5.45;100.00
15382;BME280;7789;51.364;12.358;2023-04-02T05:26:36;100273.53;;;5.39;100.00
15382;BME280;7789;51.364;12.358;2023-04-02T05:31:48;100288.78;;;5.43;100.00
15382;BME280;7789;51.364;12.358;2023-04-02T05:36:58;100285.00;;;5.35;100.00
15382;BME280;7789;51.364;12.358;2023-04-02T05:42:12;100303.13;;;5.35;100.00
15382;BME280;7789;51.364;12.358;2023-04-02T05:47:31;100314.91;;;5.40;100.00
15382;BME280;7789;51.364;12.358;2023-04-02T05:52:47;100327.13;;;5.38;100.00
15382;BME280;7789;51.364;12.358;2023-04-02T05:58:00;100336.56;;;5.39;100.00
15382;BME280;7789;51.364;12.358;2023-04-02T06:03:33;100356.47;;;5.39;100.00
15382;BME280;7789;51.364;12.358;2023-04-02T06:08:50;100352.56;;;5.46;100.00
15382;BME280;7789;51.364;12.358;2023-04-02T06:13:59;100367.31;;;5.45;100.00
15382;BME280;7789;51.364;12.358;2023-04-02T06:19:09;100368.97;;;5.46;100.00
15382;BME280;7789;51.364;12.358;2023-04-02T06:24:18;100380.16;;;5.47;100.00
15382;BME280;7789;51.364;12.358;2023-04-02T06:29:32;100395.91;;;5.44;100.00
15382;BME280;7789;51.364;12.358;2023-04-02T06:34:47;100401.53;;;5.50;100.00
15382;BME280;7789;51.364;12.358;2023-04-02T06:39:53;100418.03;;;5.49;100.00
15382;BME280;7789;51.364;12.358;2023-04-02T06:45:04;100438.50;;;5.54;100.00
15382;BME280;7789;51.364;12.358;2023-04-02T06:50:12;100437.66;;;5.53;100.00
15382;BME280;7789;51.364;12.358;2023-04-02T06:55:28;100449.13;;;5.49;100.00
15382;BME280;7789;51.364;12.358;2023-04-02T07:00:37;100465.69;;;5.47;100.00
15382;BME280;7789;51.364;12.358;2023-04-02T07:05:46;100475.97;;;5.48;100.00
15382;BME280;7789;51.364;12.358;2023-04-02T07:10:54;100483.84;;;5.47;100.00
15382;BME280;7789;51.364;12.358;2023-04-02T07:16:01;100495.22;;;5.44;100.00
15382;BME280;7789;51.364;12.358;2023-04-02T07:21:08;100498.94;;;5.54;100.00
15382;BME280;7789;51.364;12.358;2023-04-02T07:26:16;100507.66;;;5.67;100.00
15382;BME280;7789;51.364;12.358;2023-04-02T07:31:26;100504.13;;;5.68;100.00
15382;BME280;7789;51.364;12.358;2023-04-02T07:36:33;100519.25;;;5.76;99.78
15382;BME280;7789;51.364;12.358;2023-04-02T07:41:51;100540.91;;;5.75;97.44
15382;BME280;7789;51.364;12.358;2023-04-02T07:46:59;100545.44;;;5.71;96.54
15382;BME280;7789;51.364;12.358;2023-04-02T07:52:10;100554.81;;;5.74;95.52
15382;BME280;7789;51.364;12.358;2023-04-02T07:57:14;100566.00;;;5.74;95.50
15382;BME280;7789;51.364;12.358;2023-04-02T08:02:25;100565.00;;;5.77;93.90
15382;BME280;7789;51.364;12.358;2023-04-02T08:07:52;100573.28;;;5.83;93.22
15382;BME280;7789;51.364;12.358;2023-04-02T08:13:00;100583.03;;;5.94;94.15
15382;BME280;7789;51.364;12.358;2023-04-02T08:18:07;100608.47;;;5.87;92.41
15382;BME280;7789;51.364;12.358;2023-04-02T08:23:14;100618.88;;;5.87;92.63
15382;BME280;7789;51.364;12.358;2023-04-02T08:28:28;100613.75;;;5.86;92.64
15382;BME280;7789;51.364;12.358;2023-04-02T08:33:37;100621.44;;;5.87;92.59
15382;BME280;7789;51.364;12.358;2023-04-02T08:38:56;100642.56;;;5.95;92.78
15382;BME280;7789;51.364;12.358;2023-04-02T08:44:36;100649.16;;;6.01;92.26
15382;BME280;7789;51.364;12.358;2023-04-02T08:49:54;100652.69;;;6.00;92.12
15382;BME280;7789;51.364;12.358;2023-04-02T08:55:03;100661.63;;;6.10;92.08
15382;BME280;7789;51.364;12.358;2023-04-02T09:00:32;100655.50;;;6.11;91.72
15382;BME280;7789;51.364;12.358;2023-04-02T09:05:46;100669.16;;;6.14;92.19
15382;BME280;7789;51.364;12.358;2023-04-02T09:11:04;100675.53;;;6.09;90.94
15382;BME280;7789;51.364;12.358;2023-04-02T09:16:14;100682.38;;;6.10;90.27
15382;BME280;7789;51.364;12.358;2023-04-02T09:21:39;100693.25;;;6.16;89.57
15382;BME280;7789;51.364;12.358;2023-04-02T09:26:57;100701.66;;;6.20;89.45
15382;BME280;7789;51.364;12.358;2023-04-02T09:32:12;100710.84;;;6.25;89.88
15382;BME280;7789;51.364;12.358;2023-04-02T09:37:28;100716.16;;;6.38;89.80
15382;BME280;7789;51.364;12.358;2023-04-02T09:42:34;100720.16;;;6.43;90.27
15382;BME280;7789;51.364;12.358;2023-04-02T09:47:41;100732.69;;;6.51;90.12
15382;BME280;7789;51.364;12.358;2023-04-02T09:52:58;100737.69;;;6.54;89.92
15382;BME280;7789;51.364;12.358;2023-04-02T09:58:20;100750.31;;;6.60;89.26
15382;BME280;7789;51.364;12.358;2023-04-02T10:03:25;100755.16;;;6.66;89.64
15382;BME280;7789;51.364;12.358;2023-04-02T10:08:37;100770.53;;;6.69;89.34
15382;BME280;7789;51.364;12.358;2023-04-02T10:13:50;100765.75;;;6.77;89.35
15382;BME280;7789;51.364;12.358;2023-04-02T10:19:05;100776.41;;;6.86;88.37
15382;BME280;7789;51.364;12.358;2023-04-02T10:24:34;100786.53;;;6.91;87.20
15382;BME280;7789;51.364;12.358;2023-04-02T10:30:13;100786.44;;;6.92;87.07
15382;BME280;7789;51.364;12.358;2023-04-02T10:35:36;100797.75;;;6.91;87.04
15382;BME280;7789;51.364;12.358;2023-04-02T10:40:47;100809.56;;;6.97;86.28
15382;BME280;7789;51.364;12.358;2023-04-02T10:46:09;100814.19;;;6.92;84.85
15382;BME280;7789;51.364;12.358;2023-04-02T10:51:26;100820.16;;;7.08;83.46
15382;BME280;7789;51.364;12.358;2023-04-02T10:56:38;100824.97;;;7.28;83.54
15382;BME280;7789;51.364;12.358;2023-04-02T11:01:55;100830.31;;;7.52;83.19
15382;BME280;7789;51.364;12.358;2023-04-02T11:07:11;100835.72;;;7.49;82.88
15382;BME280;7789;51.364;12.358;2023-04-02T11:12:28;100832.44;;;7.60;81.84
15382;BME280;7789;51.364;12.358;2023-04-02T11:17:42;100848.59;;;7.65;80.73
15382;BME280;7789;51.364;12.358;2023-04-02T11:23:04;100854.72;;;7.78;79.99
15382;BME280;7789;51.364;12.358;2023-04-02T11:28:27;100854.38;;;7.70;78.57
15382;BME280;7789;51.364;12.358;2023-04-02T11:33:42;100861.84;;;7.88;80.58
15382;BME280;7789;51.364;12.358;2023-04-02T11:39:08;100870.38;;;7.90;78.78
15382;BME280;7789;51.364;12.358;2023-04-02T11:44:32;100874.63;;;8.05;78.22
15382;BME280;7789;51.364;12.358;2023-04-02T11:49:56;100873.81;;;8.19;76.08
15382;BME280;7789;51.364;12.358;2023-04-02T12:00:55;100892.81;;;8.72;73.48
15382;BME280;7789;51.364;12.358;2023-04-02T12:06:11;100891.09;;;8.85;72.90
15382;BME280;7789;51.364;12.358;2023-04-02T12:11:36;100899.63;;;8.87;72.66
15382;BME280;7789;51.364;12.358;2023-04-02T12:17:02;100902.88;;;8.78;71.19
15382;BME280;7789;51.364;12.358;2023-04-02T12:22:18;100915.13;;;8.76;70.97
15382;BME280;7789;51.364;12.358;2023-04-02T12:27:26;100912.66;;;8.75;71.75
15382;BME280;7789;51.364;12.358;2023-04-02T12:32:33;100918.00;;;8.59;72.77
15382;BME280;7789;51.364;12.358;2023-04-02T12:37:51;100926.97;;;8.55;72.03
15382;BME280;7789;51.364;12.358;2023-04-02T12:43:01;100929.06;;;8.63;72.72
15382;BME280;7789;51.364;12.358;2023-04-02T12:48:15;100934.19;;;8.64;71.28
15382;BME280;7789;51.364;12.358;2023-04-02T12:53:28;100937.63;;;8.65;70.76
15382;BME280;7789;51.364;12.358;2023-04-02T12:58:37;100932.97;;;8.70;70.67
15382;BME280;7789;51.364;12.358;2023-04-02T13:04:14;100935.69;;;8.81;69.36
15382;BME280;7789;51.364;12.358;2023-04-02T13:09:37;100938.22;;;8.95;70.23
15382;BME280;7789;51.364;12.358;2023-04-02T13:14:53;100938.97;;;9.09;67.85
15382;BME280;7789;51.364;12.358;2023-04-02T13:20:30;100948.09;;;9.16;66.10
15382;BME280;7789;51.364;12.358;2023-04-02T13:25:35;100955.38;;;9.11;67.35
15382;BME280;7789;51.364;12.358;2023-04-02T13:30:39;100959.97;;;9.08;66.26
15382;BME280;7789;51.364;12.358;2023-04-02T13:36:12;100964.13;;;9.10;65.94
15382;BME280;7789;51.364;12.358;2023-04-02T13:41:35;100975.03;;;9.29;67.68
15382;BME280;7789;51.364;12.358;2023-04-02T13:46:54;100970.84;;;9.26;65.09
15382;BME280;7789;51.364;12.358;2023-04-02T13:52:20;100980.25;;;9.29;65.51
15382;BME280;7789;51.364;12.358;2023-04-02T13:57:46;100986.00;;;9.46;66.22
15382;BME280;7789;51.364;12.358;2023-04-02T14:02:57;100977.72;;;9.52;65.70
15382;BME280;7789;51.364;12.358;2023-04-02T14:08:08;100987.47;;;9.63;63.58
15382;BME280;7789;51.364;12.358;2023-04-02T14:13:27;100988.28;;;9.51;61.48
15382;BME280;7789;51.364;12.358;2023-04-02T14:18:55;101004.16;;;9.48;60.80
15382;BME280;7789;51.364;12.358;2023-04-02T14:24:18;101003.09;;;9.50;61.21
15382;BME280;7789;51.364;12.358;2023-04-02T14:29:46;101011.78;;;9.51;59.06
15382;BME280;7789;51.364;12.358;2023-04-02T14:35:04;101004.09;;;9.62;60.35
15382;BME280;7789;51.364;12.358;2023-04-02T14:40:28;101020.91;;;9.70;59.70
15382;BME280;7789;51.364;12.358;2023-04-02T14:45:52;101034.03;;;9.69;60.12
15382;BME280;7789;51.364;12.358;2023-04-02T14:51:04;101026.81;;;9.47;59.92
15382;BME280;7789;51.364;12.358;2023-04-02T14:56:24;101026.38;;;9.41;60.07
15382;BME280;7789;51.364;12.358;2023-04-02T15:01:36;101027.44;;;9.51;60.60
15382;BME280;7789;51.364;12.358;2023-04-02T15:07:02;101039.31;;;9.42;60.14
15382;BME280;7789;51.364;12.358;2023-04-02T15:12:20;101031.28;;;9.45;60.95
15382;BME280;7789;51.364;12.358;2023-04-02T15:17:27;101037.25;;;9.47;61.18
15382;BME280;7789;51.364;12.358;2023-04-02T15:22:38;101045.72;;;9.51;61.47
15382;BME280;7789;51.364;12.358;2023-04-02T15:33:34;101060.72;;;9.47;61.56
15382;BME280;7789;51.364;12.358;2023-04-02T15:38:43;101072.53;;;9.40;60.45
15382;BME280;7789;51.364;12.358;2023-04-02T15:44:02;101083.84;;;9.27;60.92
15382;BME280;7789;51.364;12.358;2023-04-02T15:49:38;101070.47;;;9.19;61.03
15382;BME280;7789;51.364;12.358;2023-04-02T15:54:54;101080.41;;;9.00;60.39
15382;BME280;7789;51.364;12.358;2023-04-02T16:00:14;101084.03;;;8.98;60.11
15382;BME280;7789;51.364;12.358;2023-04-02T16:05:33;101083.34;;;9.08;60.70
15382;BME280;7789;51.364;12.358;2023-04-02T16:10:44;101096.88;;;9.01;60.05
15382;BME280;7789;51.364;12.358;2023-04-02T16:15:57;101102.72;;;8.78;58.48
15382;BME280;7789;51.364;12.358;2023-04-02T16:21:05;101094.25;;;8.74;59.82
15382;BME280;7789;51.364;12.358;2023-04-02T16:26:29;101110.09;;;8.71;59.20
15382;BME280;7789;51.364;12.358;2023-04-02T16:31:40;101114.09;;;8.63;59.23
15382;BME280;7789;51.364;12.358;2023-04-02T16:42:33;101131.78;;;8.58;59.29
15382;BME280;7789;51.364;12.358;2023-04-02T16:47:52;101136.16;;;8.57;58.90
15382;BME280;7789;51.364;12.358;2023-04-02T16:53:17;101156.72;;;8.48;58.83
15382;BME280;7789;51.364;12.358;2023-04-02T16:58:36;101156.44;;;8.38;59.96
15382;BME280;7789;51.364;12.358;2023-04-02T17:03:59;101163.13;;;8.42;60.72
15382;BME280;7789;51.364;12.358;2023-04-02T17:09:14;101153.47;;;8.30;60.79
15382;BME280;7789;51.364;12.358;2023-04-02T17:14:23;101163.41;;;8.24;61.25
15382;BME280;7789;51.364;12.358;2023-04-02T17:19:31;101164.03;;;8.13;61.83
15382;BME280;7789;51.364;12.358;2023-04-02T17:24:43;101185.19;;;8.23;60.93
15382;BME280;7789;51.364;12.358;2023-04-02T17:29:50;101181.09;;;8.19;61.19
15382;BME280;7789;51.364;12.358;2023-04-02T17:34:55;101184.00;;;8.13;62.17
15382;BME280;7789;51.364;12.358;2023-04-02T17:40:08;101193.41;;;8.15;62.94
15382;BME280;7789;51.364;12.358;2023-04-02T17:45:23;101188.94;;;8.17;62.49
15382;BME280;7789;51.364;12.358;2023-04-02T17:50:51;101197.66;;;8.18;63.25
15382;BME280;7789;51.364;12.358;2023-04-02T17:56:21;101209.53;;;8.22;63.39
15382;BME280;7789;51.364;12.358;2023-04-02T18:01:34;101210.19;;;8.25;63.91
15382;BME280;7789;51.364;12.358;2023-04-02T18:07:05;101218.28;;;8.21;63.24
15382;BME280;7789;51.364;12.358;2023-04-02T18:12:26;101224.06;;;8.26;63.31
15382;BME280;7789;51.364;12.358;2023-04-02T18:17:45;101238.09;;;8.23;63.50
15382;BME280;7789;51.364;12.358;2023-04-02T18:23:00;101239.75;;;8.24;63.92
15382;BME280;7789;51.364;12.358;2023-04-02T18:28:25;101248.44;;;8.25;64.09
15382;BME280;7789;51.364;12.358;2023-04-02T18:33:42;101254.81;;;8.19;64.60
15382;BME280;7789;51.364;12.358;2023-04-02T18:39:04;101260.13;;;8.18;65.43
15382;BME280;7789;51.364;12.358;2023-04-02T18:44:40;101269.66;;;8.17;65.74
15382;BME280;7789;51.364;12.358;2023-04-02T18:49:58;101272.53;;;8.13;65.57
15382;BME280;7789;51.364;12.358;2023-04-02T18:55:14;101285.47;;;8.14;66.41
15382;BME280;7789;51.364;12.358;2023-04-02T19:00:27;101297.16;;;8.07;67.28
15382;BME280;7789;51.364;12.358;2023-04-02T19:05:42;101302.72;;;8.01;68.28
15382;BME280;7789;51.364;12.358;2023-04-02T19:10:53;101308.16;;;7.97;69.33
15382;BME280;7789;51.364;12.358;2023-04-02T19:16:23;101324.91;;;7.93;69.98
15382;BME280;7789;51.364;12.358;2023-04-02T19:21:37;101329.59;;;7.86;69.71
15382;BME280;7789;51.364;12.358;2023-04-02T19:26:48;101326.16;;;7.86;68.73
15382;BME280;7789;51.364;12.358;2023-04-02T19:32:10;101326.41;;;7.81;69.11
15382;BME280;7789;51.364;12.358;2023-04-02T19:37:20;101345.88;;;7.74;68.71
15382;BME280;7789;51.364;12.358;2023-04-02T19:42:45;101343.63;;;7.68;68.89
15382;BME280;7789;51.364;12.358;2023-04-02T19:47:51;101348.66;;;7.56;68.54
15382;BME280;7789;51.364;12.358;2023-04-02T19:52:56;101360.38;;;7.47;68.96
15382;BME280;7789;51.364;12.358;2023-04-02T19:58:02;101362.41;;;7.42;69.92
15382;BME280;7789;51.364;12.358;2023-04-02T20:03:21;101364.31;;;7.39;68.90
15382;BME280;7789;51.364;12.358;2023-04-02T20:08:28;101377.38;;;7.37;69.65
15382;BME280;7789;51.364;12.358;2023-04-02T20:13:35;101371.59;;;7.32;69.05
15382;BME280;7789;51.364;12.358;2023-04-02T20:18:42;101388.50;;;7.24;68.42
15382;BME280;7789;51.364;12.358;2023-04-02T20:23:46;101393.88;;;7.21;69.57
15382;BME280;7789;51.364;12.358;2023-04-02T20:28:52;101398.78;;;7.10;68.87
15382;BME280;7789;51.364;12.358;2023-04-02T20:33:57;101412.69;;;7.09;68.68
15382;BME280;7789;51.364;12.358;2023-04-02T20:39:03;101422.50;;;7.04;69.13
15382;BME280;7789;51.364;12.358;2023-04-02T20:44:08;101415.91;;;6.97;69.08
15382;BME280;7789;51.364;12.358;2023-04-02T20:49:14;101431.97;;;6.88;69.20
15382;BME280;7789;51.364;12.358;2023-04-02T20:54:18;101432.75;;;6.90;70.05
15382;BME280;7789;51.364;12.358;2023-04-02T20:59:21;101440.84;;;6.84;69.44
15382;BME280;7789;51.364;12.358;2023-04-02T21:04:26;101435.88;;;6.80;68.76
15382;BME280;7789;51.364;12.358;2023-04-02T21:09:29;101459.63;;;6.72;68.85
15382;BME280;7789;51.364;12.358;2023-04-02T21:14:32;101458.16;;;6.67;69.06
15382;BME280;7789;51.364;12.358;2023-04-02T21:19:40;101460.16;;;6.62;69.60
15382;BME280;7789;51.364;12.358;2023-04-02T21:24:44;101474.19;;;6.58;69.53
15382;BME280;7789;51.364;12.358;2023-04-02T21:29:47;101485.72;;;6.52;69.05
15382;BME280;7789;51.364;12.358;2023-04-02T21:34:52;101480.69;;;6.49;69.57
15382;BME280;7789;51.364;12.358;2023-04-02T21:39:56;101476.88;;;6.38;69.46
15382;BME280;7789;51.364;12.358;2023-04-02T21:45:00;101488.53;;;6.29;69.83
15382;BME280;7789;51.364;12.358;2023-04-02T21:50:06;101490.84;;;6.17;70.16
15382;BME280;7789;51.364;12.358;2023-04-02T21:55:10;101491.91;;;6.13;70.73
15382;BME280;7789;51.364;12.358;2023-04-02T22:00:14;101500.97;;;6.04;70.65
15382;BME280;7789;51.364;12.358;2023-04-02T22:05:19;101497.66;;;6.01;71.03
15382;BME280;7789;51.364;12.358;2023-04-02T22:10:22;101507.47;;;5.94;71.33
15382;BME280;7789;51.364;12.358;2023-04-02T22:15:26;101506.41;;;5.80;71.67
15382;BME280;7789;51.364;12.358;2023-04-02T22:20:30;101514.28;;;5.77;72.46
15382;BME280;7789;51.364;12.358;2023-04-02T22:25:34;101519.88;;;5.68;72.07
15382;BME280;7789;51.364;12.358;2023-04-02T22:30:37;101518.44;;;5.61;72.02
15382;BME280;7789;51.364;12.358;2023-04-02T22:35:42;101530.13;;;5.51;72.36
15382;BME280;7789;51.364;12.358;2023-04-02T22:40:45;101524.94;;;5.51;73.02
15382;BME280;7789;51.364;12.358;2023-04-02T22:45:49;101531.28;;;5.44;73.24
15382;BME280;7789;51.364;12.358;2023-04-02T22:50:54;101537.66;;;5.37;73.86
15382;BME280;7789;51.364;12.358;2023-04-02T22:56:01;101530.88;;;5.33;73.84
15382;BME280;7789;51.364;12.358;2023-04-02T23:01:05;101546.56;;;5.30;73.83
15382;BME280;7789;51.364;12.358;2023-04-02T23:06:12;101543.56;;;5.19;74.46
15382;BME280;7789;51.364;12.358;2023-04-02T23:11:18;101559.38;;;5.13;75.13
15382;BME280;7789;51.364;12.358;2023-04-02T23:16:23;101556.31;;;5.04;74.33
15382;BME280;7789;51.364;12.358;2023-04-02T23:21:29;101560.06;;;4.97;75.10
15382;BME280;7789;51.364;12.358;2023-04-02T23:26:33;101567.28;;;4.89;75.03
15382;BME280;7789;51.364;12.358;2023-04-02T23:31:36;101565.84;;;4.82;74.35
15382;BME280;7789;51.364;12.358;2023-04-02T23:36:41;101571.94;;;4.81;74.65
15382;BME280;7789;51.364;12.358;2023-04-02T23:41:44;101573.97;;;4.73;74.93
15382;BME280;7789;51.364;12.358;2023-04-02T23:46:49;101565.50;;;4.69;74.90
15382;BME280;7789;51.364;12.358;2023-04-02T23:51:54;101575.03;;;4.67;74.84
15382;BME280;7789;51.364;12.358;2023-04-02T23:56:57;101577.81;;;4.63;75.01
